KELM/ELM METAR and TAF weather

Enter ICAO airport designator
Station Type Date Time Source
KELM METAR 2022/01/18 06:53 UTC NOAA

KELM 180653Z AUTO 28010KT 7SM -SN OVC024 M04/M08 A2963 RMK AO2 SLP044 P0000 T10391078


Station Type Date Time Source
KELM Decoded METAR 2022/01/18 06:53 UTC NOAA

ELMIRA COUNTY AIRPORT, NY, United States (KELM) 42-10N 76-54W 302M
Jan 18, 2022 - 01:53 AM EST / 2022.01.18 0653 UTC
Wind: from the W (280 degrees) at 12 MPH (10 KT):0
Visibility: 7 mile(s):0
Sky conditions: overcast
Weather: light snow
Precipitation last hour: A trace
Temperature: 25.0 F (-3.9 C)
Windchill: 14 F (-10 C):1
Dew Point: 18.0 F (-7.8 C)
Relative Humidity: 74%
Pressure (altimeter): 29.63 in. Hg (1003 hPa)
ob: KELM 180653Z AUTO 28010KT 7SM -SN OVC024 M04/M08 A2963 RMK AO2 SLP044 P0000 T10391078
cycle: 7

Station Type Date Time Source
KELM TAF 2022/01/18 06:51 UTC NOAA

TAF KELM 180548Z 1806/1906 29012G23KT P6SM -SHSN BKN025 OVC035
FM181400 30012G23KT P6SM BKN035
FM182300 28004KT P6SM SCT045
FM190500 17005KT P6SM BKN060

Example: see airport list